sensor_id;sensor_type;location;lat;lon;timestamp;P1;durP1;ratioP1;P2;durP2;ratioP2
2225;SDS011;1119;48.288;8.726;2022-12-29T00:00:21;2.53;;;2.43;;
2225;SDS011;1119;48.288;8.726;2022-12-29T00:02:48;2.57;;;2.37;;
2225;SDS011;1119;48.288;8.726;2022-12-29T00:05:15;2.70;;;2.60;;
2225;SDS011;1119;48.288;8.726;2022-12-29T00:07:42;2.87;;;2.77;;
2225;SDS011;1119;48.288;8.726;2022-12-29T00:10:10;2.73;;;2.63;;
2225;SDS011;1119;48.288;8.726;2022-12-29T00:12:37;3.97;;;3.13;;
2225;SDS011;1119;48.288;8.726;2022-12-29T00:15:23;3.10;;;2.97;;
2225;SDS011;1119;48.288;8.726;2022-12-29T00:18:03;3.27;;;2.97;;
2225;SDS011;1119;48.288;8.726;2022-12-29T00:20:32;3.60;;;3.30;;
2225;SDS011;1119;48.288;8.726;2022-12-29T00:23:18;2.93;;;2.83;;
2225;SDS011;1119;48.288;8.726;2022-12-29T00:26:05;3.73;;;3.20;;
2225;SDS011;1119;48.288;8.726;2022-12-29T00:28:57;3.30;;;3.00;;
2225;SDS011;1119;48.288;8.726;2022-12-29T00:31:43;3.13;;;2.90;;
2225;SDS011;1119;48.288;8.726;2022-12-29T00:34:28;2.87;;;2.67;;
2225;SDS011;1119;48.288;8.726;2022-12-29T00:37:12;2.80;;;2.70;;
2225;SDS011;1119;48.288;8.726;2022-12-29T00:39:40;3.37;;;3.03;;
2225;SDS011;1119;48.288;8.726;2022-12-29T00:42:25;4.00;;;3.70;;
2225;SDS011;1119;48.288;8.726;2022-12-29T00:45:10;2.83;;;2.63;;
2225;SDS011;1119;48.288;8.726;2022-12-29T00:47:38;3.67;;;3.37;;
2225;SDS011;1119;48.288;8.726;2022-12-29T00:50:07;3.10;;;2.83;;
2225;SDS011;1119;48.288;8.726;2022-12-29T00:52:33;4.27;;;3.47;;
2225;SDS011;1119;48.288;8.726;2022-12-29T00:55:00;2.60;;;2.50;;
2225;SDS011;1119;48.288;8.726;2022-12-29T00:57:28;3.97;;;3.57;;
2225;SDS011;1119;48.288;8.726;2022-12-29T00:59:55;3.97;;;3.50;;
2225;SDS011;1119;48.288;8.726;2022-12-29T01:02:22;3.13;;;2.93;;
2225;SDS011;1119;48.288;8.726;2022-12-29T01:04:51;2.43;;;2.33;;
2225;SDS011;1119;48.288;8.726;2022-12-29T01:07:18;3.00;;;2.80;;
2225;SDS011;1119;48.288;8.726;2022-12-29T01:09:45;3.20;;;3.00;;
2225;SDS011;1119;48.288;8.726;2022-12-29T01:12:30;2.40;;;2.30;;
2225;SDS011;1119;48.288;8.726;2022-12-29T01:15:11;3.20;;;3.00;;
2225;SDS011;1119;48.288;8.726;2022-12-29T01:17:40;3.17;;;2.97;;
2225;SDS011;1119;48.288;8.726;2022-12-29T01:20:10;3.33;;;2.97;;
2225;SDS011;1119;48.288;8.726;2022-12-29T01:22:38;2.83;;;2.63;;
2225;SDS011;1119;48.288;8.726;2022-12-29T01:25:08;2.60;;;2.50;;
2225;SDS011;1119;48.288;8.726;2022-12-29T01:27:37;2.50;;;2.40;;
2225;SDS011;1119;48.288;8.726;2022-12-29T01:30:05;2.90;;;2.70;;
2225;SDS011;1119;48.288;8.726;2022-12-29T01:32:33;3.70;;;2.77;;
2225;SDS011;1119;48.288;8.726;2022-12-29T01:35:01;2.67;;;2.57;;
2225;SDS011;1119;48.288;8.726;2022-12-29T01:37:30;3.23;;;3.13;;
2225;SDS011;1119;48.288;8.726;2022-12-29T01:39:57;2.30;;;2.10;;
2225;SDS011;1119;48.288;8.726;2022-12-29T01:42:25;2.63;;;2.53;;
2225;SDS011;1119;48.288;8.726;2022-12-29T01:44:53;2.97;;;2.77;;
2225;SDS011;1119;48.288;8.726;2022-12-29T01:47:27;3.17;;;2.93;;
2225;SDS011;1119;48.288;8.726;2022-12-29T01:50:03;2.90;;;2.80;;
2225;SDS011;1119;48.288;8.726;2022-12-29T01:52:36;3.90;;;3.50;;
2225;SDS011;1119;48.288;8.726;2022-12-29T01:55:09;6.03;;;3.93;;
2225;SDS011;1119;48.288;8.726;2022-12-29T01:57:38;4.10;;;3.80;;
2225;SDS011;1119;48.288;8.726;2022-12-29T02:00:11;6.93;;;2.80;;
2225;SDS011;1119;48.288;8.726;2022-12-29T02:02:40;7.13;;;4.03;;
2225;SDS011;1119;48.288;8.726;2022-12-29T02:05:25;2.57;;;2.47;;
2225;SDS011;1119;48.288;8.726;2022-12-29T02:07:56;2.97;;;2.50;;
2225;SDS011;1119;48.288;8.726;2022-12-29T02:10:24;2.60;;;2.50;;
2225;SDS011;1119;48.288;8.726;2022-12-29T02:12:55;2.97;;;2.87;;
2225;SDS011;1119;48.288;8.726;2022-12-29T02:15:24;2.97;;;2.77;;
2225;SDS011;1119;48.288;8.726;2022-12-29T02:18:08;3.30;;;2.57;;
2225;SDS011;1119;48.288;8.726;2022-12-29T02:27:43;2.63;;;2.43;;
2225;SDS011;1119;48.288;8.726;2022-12-29T02:30:36;2.80;;;2.70;;
2225;SDS011;1119;48.288;8.726;2022-12-29T02:33:13;3.03;;;2.90;;
2225;SDS011;1119;48.288;8.726;2022-12-29T02:36:01;2.73;;;2.53;;
2225;SDS011;1119;48.288;8.726;2022-12-29T02:38:43;2.73;;;2.60;;
2225;SDS011;1119;48.288;8.726;2022-12-29T02:41:19;3.00;;;2.70;;
2225;SDS011;1119;48.288;8.726;2022-12-29T02:43:51;2.23;;;2.13;;
2225;SDS011;1119;48.288;8.726;2022-12-29T02:46:26;2.87;;;2.73;;
2225;SDS011;1119;48.288;8.726;2022-12-29T02:49:03;6.20;;;3.50;;
2225;SDS011;1119;48.288;8.726;2022-12-29T02:51:39;3.00;;;2.80;;
2225;SDS011;1119;48.288;8.726;2022-12-29T02:54:18;2.73;;;2.53;;
2225;SDS011;1119;48.288;8.726;2022-12-29T02:57:08;3.93;;;2.77;;
2225;SDS011;1119;48.288;8.726;2022-12-29T02:59:39;4.53;;;3.60;;
2225;SDS011;1119;48.288;8.726;2022-12-29T03:02:28;3.77;;;3.20;;
2225;SDS011;1119;48.288;8.726;2022-12-29T03:05:29;3.43;;;3.13;;
2225;SDS011;1119;48.288;8.726;2022-12-29T03:08:23;3.27;;;2.97;;
2225;SDS011;1119;48.288;8.726;2022-12-29T03:11:02;3.70;;;2.40;;
2225;SDS011;1119;48.288;8.726;2022-12-29T03:13:52;2.50;;;2.30;;
2225;SDS011;1119;48.288;8.726;2022-12-29T03:16:44;2.23;;;2.10;;
2225;SDS011;1119;48.288;8.726;2022-12-29T03:19:16;2.50;;;2.40;;
2225;SDS011;1119;48.288;8.726;2022-12-29T03:21:49;3.13;;;2.80;;
2225;SDS011;1119;48.288;8.726;2022-12-29T03:24:43;2.50;;;2.40;;
2225;SDS011;1119;48.288;8.726;2022-12-29T03:27:18;4.23;;;4.10;;
2225;SDS011;1119;48.288;8.726;2022-12-29T03:29:50;2.90;;;2.70;;
2225;SDS011;1119;48.288;8.726;2022-12-29T03:32:28;3.23;;;3.03;;
2225;SDS011;1119;48.288;8.726;2022-12-29T03:35:03;3.13;;;2.93;;
2225;SDS011;1119;48.288;8.726;2022-12-29T03:37:34;3.07;;;2.97;;
2225;SDS011;1119;48.288;8.726;2022-12-29T03:40:05;3.43;;;3.30;;
2225;SDS011;1119;48.288;8.726;2022-12-29T03:42:35;3.30;;;3.10;;
2225;SDS011;1119;48.288;8.726;2022-12-29T03:45:04;2.60;;;2.40;;
2225;SDS011;1119;48.288;8.726;2022-12-29T03:47:33;3.00;;;2.90;;
2225;SDS011;1119;48.288;8.726;2022-12-29T03:50:02;3.70;;;3.00;;
2225;SDS011;1119;48.288;8.726;2022-12-29T03:52:34;2.80;;;2.70;;
2225;SDS011;1119;48.288;8.726;2022-12-29T03:55:03;3.13;;;2.93;;
2225;SDS011;1119;48.288;8.726;2022-12-29T03:57:31;2.70;;;2.60;;
2225;SDS011;1119;48.288;8.726;2022-12-29T04:00:03;2.73;;;2.50;;
2225;SDS011;1119;48.288;8.726;2022-12-29T04:06:54;2.50;;;2.40;;
2225;SDS011;1119;48.288;8.726;2022-12-29T04:10:43;2.80;;;2.60;;
2225;SDS011;1119;48.288;8.726;2022-12-29T04:17:28;3.77;;;3.20;;
2225;SDS011;1119;48.288;8.726;2022-12-29T04:28:06;3.67;;;3.33;;
2225;SDS011;1119;48.288;8.726;2022-12-29T04:30:49;2.73;;;2.63;;
2225;SDS011;1119;48.288;8.726;2022-12-29T04:37:48;3.50;;;3.30;;
2225;SDS011;1119;48.288;8.726;2022-12-29T04:40:16;3.20;;;3.00;;
2225;SDS011;1119;48.288;8.726;2022-12-29T04:42:43;3.57;;;3.43;;
2225;SDS011;1119;48.288;8.726;2022-12-29T04:45:12;5.00;;;3.17;;
2225;SDS011;1119;48.288;8.726;2022-12-29T04:47:51;3.50;;;3.00;;
2225;SDS011;1119;48.288;8.726;2022-12-29T04:54:11;3.27;;;3.07;;
2225;SDS011;1119;48.288;8.726;2022-12-29T04:56:39;6.37;;;4.20;;
2225;SDS011;1119;48.288;8.726;2022-12-29T04:59:07;3.43;;;3.17;;
2225;SDS011;1119;48.288;8.726;2022-12-29T05:01:35;3.17;;;2.97;;
2225;SDS011;1119;48.288;8.726;2022-12-29T05:04:03;3.20;;;3.10;;
2225;SDS011;1119;48.288;8.726;2022-12-29T05:06:31;3.23;;;3.00;;
2225;SDS011;1119;48.288;8.726;2022-12-29T05:08:59;2.93;;;2.80;;
2225;SDS011;1119;48.288;8.726;2022-12-29T05:11:27;2.90;;;2.70;;
2225;SDS011;1119;48.288;8.726;2022-12-29T05:13:56;3.77;;;3.47;;
2225;SDS011;1119;48.288;8.726;2022-12-29T05:16:23;2.60;;;2.50;;
2225;SDS011;1119;48.288;8.726;2022-12-29T05:18:53;2.80;;;2.70;;
2225;SDS011;1119;48.288;8.726;2022-12-29T05:33:21;3.23;;;2.93;;
2225;SDS011;1119;48.288;8.726;2022-12-29T05:35:51;4.27;;;4.07;;
2225;SDS011;1119;48.288;8.726;2022-12-29T05:38:20;4.57;;;2.50;;
2225;SDS011;1119;48.288;8.726;2022-12-29T05:40:47;2.43;;;2.33;;
2225;SDS011;1119;48.288;8.726;2022-12-29T05:43:34;3.37;;;3.17;;
2225;SDS011;1119;48.288;8.726;2022-12-29T05:46:20;2.07;;;2.07;;
2225;SDS011;1119;48.288;8.726;2022-12-29T05:49:23;3.33;;;2.70;;
2225;SDS011;1119;48.288;8.726;2022-12-29T05:52:20;2.63;;;2.53;;
2225;SDS011;1119;48.288;8.726;2022-12-29T05:54:48;7.07;;;3.10;;
2225;SDS011;1119;48.288;8.726;2022-12-29T05:57:18;2.70;;;2.60;;
2225;SDS011;1119;48.288;8.726;2022-12-29T05:59:53;7.77;;;3.63;;
2225;SDS011;1119;48.288;8.726;2022-12-29T06:06:46;2.60;;;2.50;;
2225;SDS011;1119;48.288;8.726;2022-12-29T06:18:15;2.50;;;2.40;;
2225;SDS011;1119;48.288;8.726;2022-12-29T06:20:43;3.13;;;2.93;;
2225;SDS011;1119;48.288;8.726;2022-12-29T06:23:11;3.73;;;3.37;;
2225;SDS011;1119;48.288;8.726;2022-12-29T06:30:03;4.00;;;2.80;;
2225;SDS011;1119;48.288;8.726;2022-12-29T06:54:16;2.97;;;2.77;;
2225;SDS011;1119;48.288;8.726;2022-12-29T07:04:13;2.47;;;2.37;;
2225;SDS011;1119;48.288;8.726;2022-12-29T07:06:41;2.70;;;2.50;;
2225;SDS011;1119;48.288;8.726;2022-12-29T07:13:25;2.87;;;2.77;;
2225;SDS011;1119;48.288;8.726;2022-12-29T07:20:11;3.10;;;3.00;;
2225;SDS011;1119;48.288;8.726;2022-12-29T07:38:31;2.63;;;2.53;;
2225;SDS011;1119;48.288;8.726;2022-12-29T07:45:24;3.43;;;3.23;;
2225;SDS011;1119;48.288;8.726;2022-12-29T07:48:13;3.20;;;3.10;;
2225;SDS011;1119;48.288;8.726;2022-12-29T07:50:40;3.10;;;3.00;;
2225;SDS011;1119;48.288;8.726;2022-12-29T08:01:29;3.37;;;3.10;;
2225;SDS011;1119;48.288;8.726;2022-12-29T08:03:57;4.03;;;3.83;;
2225;SDS011;1119;48.288;8.726;2022-12-29T08:06:24;3.47;;;3.17;;
2225;SDS011;1119;48.288;8.726;2022-12-29T08:08:52;5.53;;;3.23;;
2225;SDS011;1119;48.288;8.726;2022-12-29T08:11:21;3.00;;;2.90;;
2225;SDS011;1119;48.288;8.726;2022-12-29T08:13:48;3.40;;;3.10;;
2225;SDS011;1119;48.288;8.726;2022-12-29T08:16:17;3.40;;;3.10;;
2225;SDS011;1119;48.288;8.726;2022-12-29T08:18:44;3.43;;;3.33;;
2225;SDS011;1119;48.288;8.726;2022-12-29T08:21:13;4.83;;;3.50;;
2225;SDS011;1119;48.288;8.726;2022-12-29T08:23:40;2.97;;;2.87;;
2225;SDS011;1119;48.288;8.726;2022-12-29T08:26:07;2.80;;;2.70;;
2225;SDS011;1119;48.288;8.726;2022-12-29T08:28:34;4.57;;;4.27;;
2225;SDS011;1119;48.288;8.726;2022-12-29T08:31:02;4.43;;;4.20;;
2225;SDS011;1119;48.288;8.726;2022-12-29T08:33:29;3.10;;;3.00;;
2225;SDS011;1119;48.288;8.726;2022-12-29T08:35:58;3.50;;;3.40;;
2225;SDS011;1119;48.288;8.726;2022-12-29T08:38:28;7.33;;;3.53;;
2225;SDS011;1119;48.288;8.726;2022-12-29T08:40:56;2.80;;;2.70;;
2225;SDS011;1119;48.288;8.726;2022-12-29T08:43:24;3.17;;;3.07;;
2225;SDS011;1119;48.288;8.726;2022-12-29T08:45:53;3.13;;;3.00;;
2225;SDS011;1119;48.288;8.726;2022-12-29T08:48:21;3.03;;;2.87;;
2225;SDS011;1119;48.288;8.726;2022-12-29T08:50:48;4.20;;;3.83;;
2225;SDS011;1119;48.288;8.726;2022-12-29T08:53:16;3.80;;;3.53;;
2225;SDS011;1119;48.288;8.726;2022-12-29T08:55:45;3.60;;;3.40;;
2225;SDS011;1119;48.288;8.726;2022-12-29T08:58:14;3.27;;;3.17;;
2225;SDS011;1119;48.288;8.726;2022-12-29T09:00:43;3.10;;;3.00;;
2225;SDS011;1119;48.288;8.726;2022-12-29T09:03:10;3.97;;;3.67;;
2225;SDS011;1119;48.288;8.726;2022-12-29T09:05:38;3.30;;;3.20;;
2225;SDS011;1119;48.288;8.726;2022-12-29T09:08:05;3.70;;;3.50;;
2225;SDS011;1119;48.288;8.726;2022-12-29T09:10:32;2.87;;;2.77;;
2225;SDS011;1119;48.288;8.726;2022-12-29T09:13:00;4.20;;;3.80;;
2225;SDS011;1119;48.288;8.726;2022-12-29T09:15:28;4.10;;;3.90;;
2225;SDS011;1119;48.288;8.726;2022-12-29T09:17:55;8.83;;;3.57;;
2225;SDS011;1119;48.288;8.726;2022-12-29T09:20:22;3.60;;;3.47;;
2225;SDS011;1119;48.288;8.726;2022-12-29T09:22:49;2.93;;;2.83;;
2225;SDS011;1119;48.288;8.726;2022-12-29T09:25:17;3.63;;;3.30;;
2225;SDS011;1119;48.288;8.726;2022-12-29T09:27:45;3.47;;;3.27;;
2225;SDS011;1119;48.288;8.726;2022-12-29T09:30:14;5.90;;;3.40;;
2225;SDS011;1119;48.288;8.726;2022-12-29T09:32:41;5.53;;;3.17;;
2225;SDS011;1119;48.288;8.726;2022-12-29T09:35:09;2.63;;;2.43;;
2225;SDS011;1119;48.288;8.726;2022-12-29T09:37:36;2.97;;;2.30;;
2225;SDS011;1119;48.288;8.726;2022-12-29T09:40:04;2.80;;;2.70;;
2225;SDS011;1119;48.288;8.726;2022-12-29T09:42:35;2.20;;;2.10;;
2225;SDS011;1119;48.288;8.726;2022-12-29T09:45:09;2.53;;;2.43;;
2225;SDS011;1119;48.288;8.726;2022-12-29T09:47:43;3.07;;;2.93;;
2225;SDS011;1119;48.288;8.726;2022-12-29T09:50:20;6.40;;;2.83;;
2225;SDS011;1119;48.288;8.726;2022-12-29T09:52:53;3.40;;;3.20;;
2225;SDS011;1119;48.288;8.726;2022-12-29T09:55:26;3.50;;;3.30;;
2225;SDS011;1119;48.288;8.726;2022-12-29T09:58:02;2.33;;;2.23;;
2225;SDS011;1119;48.288;8.726;2022-12-29T10:00:38;2.97;;;2.87;;
2225;SDS011;1119;48.288;8.726;2022-12-29T10:03:15;2.60;;;2.50;;
2225;SDS011;1119;48.288;8.726;2022-12-29T10:05:46;3.17;;;2.97;;
2225;SDS011;1119;48.288;8.726;2022-12-29T10:08:22;2.50;;;2.40;;
2225;SDS011;1119;48.288;8.726;2022-12-29T10:11:02;2.30;;;2.30;;
2225;SDS011;1119;48.288;8.726;2022-12-29T10:13:49;2.70;;;2.60;;
2225;SDS011;1119;48.288;8.726;2022-12-29T10:16:39;2.43;;;2.33;;
2225;SDS011;1119;48.288;8.726;2022-12-29T10:19:20;3.37;;;3.07;;
2225;SDS011;1119;48.288;8.726;2022-12-29T10:22:09;3.37;;;3.17;;
2225;SDS011;1119;48.288;8.726;2022-12-29T10:24:49;2.73;;;2.40;;
2225;SDS011;1119;48.288;8.726;2022-12-29T10:27:19;3.47;;;3.23;;
2225;SDS011;1119;48.288;8.726;2022-12-29T10:29:48;3.07;;;2.87;;
2225;SDS011;1119;48.288;8.726;2022-12-29T10:32:22;3.43;;;3.23;;
2225;SDS011;1119;48.288;8.726;2022-12-29T10:34:57;3.00;;;2.80;;
2225;SDS011;1119;48.288;8.726;2022-12-29T10:37:32;2.60;;;2.50;;
2225;SDS011;1119;48.288;8.726;2022-12-29T10:40:18;2.80;;;2.67;;
2225;SDS011;1119;48.288;8.726;2022-12-29T10:42:52;4.13;;;3.73;;
2225;SDS011;1119;48.288;8.726;2022-12-29T10:45:21;3.20;;;2.60;;
2225;SDS011;1119;48.288;8.726;2022-12-29T10:47:57;3.80;;;3.63;;
2225;SDS011;1119;48.288;8.726;2022-12-29T10:50:28;4.80;;;3.50;;
2225;SDS011;1119;48.288;8.726;2022-12-29T10:52:56;3.43;;;3.23;;
2225;SDS011;1119;48.288;8.726;2022-12-29T10:55:28;2.93;;;2.60;;
2225;SDS011;1119;48.288;8.726;2022-12-29T10:57:59;3.40;;;3.10;;
2225;SDS011;1119;48.288;8.726;2022-12-29T11:00:31;7.33;;;3.80;;
2225;SDS011;1119;48.288;8.726;2022-12-29T11:03:04;3.40;;;3.30;;
2225;SDS011;1119;48.288;8.726;2022-12-29T11:06:03;3.30;;;3.20;;
2225;SDS011;1119;48.288;8.726;2022-12-29T11:08:36;3.20;;;3.00;;
2225;SDS011;1119;48.288;8.726;2022-12-29T11:11:08;4.50;;;3.87;;
2225;SDS011;1119;48.288;8.726;2022-12-29T11:13:46;4.70;;;4.23;;
2225;SDS011;1119;48.288;8.726;2022-12-29T11:16:21;5.30;;;4.80;;
2225;SDS011;1119;48.288;8.726;2022-12-29T11:18:57;7.23;;;5.33;;
2225;SDS011;1119;48.288;8.726;2022-12-29T11:21:30;3.93;;;3.73;;
2225;SDS011;1119;48.288;8.726;2022-12-29T11:24:00;3.80;;;3.60;;
2225;SDS011;1119;48.288;8.726;2022-12-29T11:26:30;10.03;;;4.77;;
2225;SDS011;1119;48.288;8.726;2022-12-29T11:29:11;4.30;;;3.95;;
2225;SDS011;1119;48.288;8.726;2022-12-29T11:31:49;3.90;;;3.60;;
2225;SDS011;1119;48.288;8.726;2022-12-29T11:34:21;3.57;;;3.40;;
2225;SDS011;1119;48.288;8.726;2022-12-29T11:36:52;4.50;;;4.20;;
2225;SDS011;1119;48.288;8.726;2022-12-29T11:39:36;4.30;;;3.50;;
2225;SDS011;1119;48.288;8.726;2022-12-29T11:42:12;6.00;;;3.40;;
2225;SDS011;1119;48.288;8.726;2022-12-29T11:44:43;4.13;;;3.73;;
2225;SDS011;1119;48.288;8.726;2022-12-29T11:47:13;3.60;;;3.30;;
2225;SDS011;1119;48.288;8.726;2022-12-29T11:49:55;4.60;;;4.20;;
2225;SDS011;1119;48.288;8.726;2022-12-29T11:52:26;3.33;;;3.20;;
2225;SDS011;1119;48.288;8.726;2022-12-29T11:55:01;6.77;;;4.50;;
2225;SDS011;1119;48.288;8.726;2022-12-29T11:57:32;2.90;;;2.70;;
2225;SDS011;1119;48.288;8.726;2022-12-29T12:00:02;4.20;;;3.50;;
2225;SDS011;1119;48.288;8.726;2022-12-29T12:02:42;4.00;;;3.80;;
2225;SDS011;1119;48.288;8.726;2022-12-29T12:05:22;3.63;;;3.40;;
2225;SDS011;1119;48.288;8.726;2022-12-29T12:07:57;7.03;;;4.17;;
2225;SDS011;1119;48.288;8.726;2022-12-29T12:10:32;3.93;;;3.70;;
2225;SDS011;1119;48.288;8.726;2022-12-29T12:13:06;2.70;;;2.50;;
2225;SDS011;1119;48.288;8.726;2022-12-29T12:15:46;8.57;;;7.77;;
2225;SDS011;1119;48.288;8.726;2022-12-29T12:18:24;7.17;;;6.50;;
2225;SDS011;1119;48.288;8.726;2022-12-29T12:21:05;4.57;;;4.27;;
2225;SDS011;1119;48.288;8.726;2022-12-29T12:23:43;5.80;;;5.40;;
2225;SDS011;1119;48.288;8.726;2022-12-29T12:26:27;16.37;;;8.47;;
2225;SDS011;1119;48.288;8.726;2022-12-29T12:28:59;8.90;;;6.13;;
2225;SDS011;1119;48.288;8.726;2022-12-29T12:31:39;5.63;;;5.33;;
2225;SDS011;1119;48.288;8.726;2022-12-29T12:34:13;4.47;;;4.10;;
2225;SDS011;1119;48.288;8.726;2022-12-29T12:36:55;8.43;;;7.60;;
2225;SDS011;1119;48.288;8.726;2022-12-29T12:43:18;7.13;;;6.50;;
2225;SDS011;1119;48.288;8.726;2022-12-29T12:46:18;6.17;;;4.40;;
2225;SDS011;1119;48.288;8.726;2022-12-29T12:49:11;4.80;;;4.60;;
2225;SDS011;1119;48.288;8.726;2022-12-29T12:52:00;5.17;;;4.80;;
2225;SDS011;1119;48.288;8.726;2022-12-29T12:54:40;8.40;;;6.53;;
2225;SDS011;1119;48.288;8.726;2022-12-29T12:57:32;5.90;;;5.37;;
2225;SDS011;1119;48.288;8.726;2022-12-29T13:00:11;5.47;;;5.07;;
2225;SDS011;1119;48.288;8.726;2022-12-29T13:02:46;6.70;;;6.20;;
2225;SDS011;1119;48.288;8.726;2022-12-29T13:08:38;3.20;;;3.10;;
2225;SDS011;1119;48.288;8.726;2022-12-29T13:11:21;4.43;;;4.03;;
2225;SDS011;1119;48.288;8.726;2022-12-29T13:13:59;3.60;;;3.37;;
2225;SDS011;1119;48.288;8.726;2022-12-29T13:16:44;6.60;;;5.40;;
2225;SDS011;1119;48.288;8.726;2022-12-29T13:19:21;5.40;;;3.97;;
2225;SDS011;1119;48.288;8.726;2022-12-29T13:22:00;3.80;;;3.60;;
2225;SDS011;1119;48.288;8.726;2022-12-29T13:24:40;4.03;;;3.73;;
2225;SDS011;1119;48.288;8.726;2022-12-29T13:27:18;2.50;;;2.40;;
2225;SDS011;1119;48.288;8.726;2022-12-29T13:29:57;2.90;;;2.80;;
2225;SDS011;1119;48.288;8.726;2022-12-29T13:32:40;3.37;;;3.17;;
2225;SDS011;1119;48.288;8.726;2022-12-29T13:35:32;3.23;;;2.93;;
2225;SDS011;1119;48.288;8.726;2022-12-29T13:38:20;4.00;;;3.40;;
2225;SDS011;1119;48.288;8.726;2022-12-29T13:40:54;3.13;;;3.03;;
2225;SDS011;1119;48.288;8.726;2022-12-29T13:43:27;3.03;;;2.93;;
2225;SDS011;1119;48.288;8.726;2022-12-29T13:46:01;3.00;;;2.80;;
2225;SDS011;1119;48.288;8.726;2022-12-29T13:48:36;3.10;;;2.90;;
2225;SDS011;1119;48.288;8.726;2022-12-29T13:51:08;3.57;;;3.47;;
2225;SDS011;1119;48.288;8.726;2022-12-29T13:53:39;3.30;;;3.20;;
2225;SDS011;1119;48.288;8.726;2022-12-29T13:56:22;3.40;;;3.30;;
2225;SDS011;1119;48.288;8.726;2022-12-29T13:58:59;6.10;;;3.50;;
2225;SDS011;1119;48.288;8.726;2022-12-29T14:01:34;3.00;;;2.90;;
2225;SDS011;1119;48.288;8.726;2022-12-29T14:04:09;3.30;;;3.20;;
2225;SDS011;1119;48.288;8.726;2022-12-29T14:06:39;4.90;;;4.50;;
2225;SDS011;1119;48.288;8.726;2022-12-29T14:12:20;4.97;;;4.60;;
2225;SDS011;1119;48.288;8.726;2022-12-29T14:18:04;5.17;;;4.73;;
2225;SDS011;1119;48.288;8.726;2022-12-29T14:20:38;6.30;;;5.80;;
2225;SDS011;1119;48.288;8.726;2022-12-29T14:23:34;4.17;;;3.87;;
2225;SDS011;1119;48.288;8.726;2022-12-29T14:26:18;4.73;;;4.00;;
2225;SDS011;1119;48.288;8.726;2022-12-29T14:38:14;4.10;;;3.90;;
2225;SDS011;1119;48.288;8.726;2022-12-29T14:43:58;3.20;;;3.00;;
2225;SDS011;1119;48.288;8.726;2022-12-29T14:46:44;4.57;;;4.13;;
2225;SDS011;1119;48.288;8.726;2022-12-29T14:49:16;4.07;;;3.77;;
2225;SDS011;1119;48.288;8.726;2022-12-29T14:51:48;3.37;;;3.27;;
2225;SDS011;1119;48.288;8.726;2022-12-29T14:57:19;2.63;;;2.53;;
2225;SDS011;1119;48.288;8.726;2022-12-29T14:59:52;3.03;;;2.93;;
2225;SDS011;1119;48.288;8.726;2022-12-29T15:02:26;2.93;;;2.73;;
2225;SDS011;1119;48.288;8.726;2022-12-29T15:05:19;3.00;;;2.80;;
2225;SDS011;1119;48.288;8.726;2022-12-29T15:07:56;2.87;;;2.70;;
2225;SDS011;1119;48.288;8.726;2022-12-29T15:10:24;4.33;;;3.27;;
2225;SDS011;1119;48.288;8.726;2022-12-29T15:12:54;4.53;;;4.13;;
2225;SDS011;1119;48.288;8.726;2022-12-29T15:15:35;3.00;;;2.80;;
2225;SDS011;1119;48.288;8.726;2022-12-29T15:18:13;5.33;;;3.03;;
2225;SDS011;1119;48.288;8.726;2022-12-29T15:20:49;3.90;;;3.70;;
2225;SDS011;1119;48.288;8.726;2022-12-29T15:23:20;2.97;;;2.87;;
2225;SDS011;1119;48.288;8.726;2022-12-29T15:25:51;2.73;;;2.63;;
2225;SDS011;1119;48.288;8.726;2022-12-29T15:28:22;3.20;;;3.10;;
2225;SDS011;1119;48.288;8.726;2022-12-29T15:30:50;4.67;;;3.80;;
2225;SDS011;1119;48.288;8.726;2022-12-29T15:33:22;3.80;;;3.60;;
2225;SDS011;1119;48.288;8.726;2022-12-29T15:35:54;3.13;;;3.03;;
2225;SDS011;1119;48.288;8.726;2022-12-29T15:38:24;3.80;;;3.57;;
2225;SDS011;1119;48.288;8.726;2022-12-29T15:40:54;2.30;;;2.20;;
2225;SDS011;1119;48.288;8.726;2022-12-29T15:43:30;2.67;;;2.57;;
2225;SDS011;1119;48.288;8.726;2022-12-29T15:46:11;3.23;;;3.03;;
2225;SDS011;1119;48.288;8.726;2022-12-29T15:48:40;3.30;;;3.00;;
2225;SDS011;1119;48.288;8.726;2022-12-29T15:51:12;3.27;;;3.17;;
2225;SDS011;1119;48.288;8.726;2022-12-29T15:53:46;3.03;;;2.87;;
2225;SDS011;1119;48.288;8.726;2022-12-29T15:56:14;4.03;;;3.73;;
2225;SDS011;1119;48.288;8.726;2022-12-29T15:58:42;7.53;;;5.83;;
2225;SDS011;1119;48.288;8.726;2022-12-29T16:01:16;6.10;;;4.03;;
2225;SDS011;1119;48.288;8.726;2022-12-29T16:03:47;3.70;;;3.50;;
2225;SDS011;1119;48.288;8.726;2022-12-29T16:06:25;3.50;;;3.30;;
2225;SDS011;1119;48.288;8.726;2022-12-29T16:08:56;2.90;;;2.70;;
2225;SDS011;1119;48.288;8.726;2022-12-29T16:11:29;3.40;;;3.20;;
2225;SDS011;1119;48.288;8.726;2022-12-29T16:14:01;2.40;;;2.30;;
2225;SDS011;1119;48.288;8.726;2022-12-29T16:16:35;3.00;;;2.80;;
2225;SDS011;1119;48.288;8.726;2022-12-29T16:19:08;3.50;;;3.30;;
2225;SDS011;1119;48.288;8.726;2022-12-29T16:21:40;4.27;;;3.97;;
2225;SDS011;1119;48.288;8.726;2022-12-29T16:24:12;3.80;;;3.60;;
2225;SDS011;1119;48.288;8.726;2022-12-29T16:26:45;4.57;;;4.13;;
2225;SDS011;1119;48.288;8.726;2022-12-29T16:29:16;5.67;;;5.10;;
2225;SDS011;1119;48.288;8.726;2022-12-29T16:31:50;4.47;;;4.17;;
2225;SDS011;1119;48.288;8.726;2022-12-29T16:34:28;6.37;;;4.77;;
2225;SDS011;1119;48.288;8.726;2022-12-29T16:39:55;3.10;;;3.00;;
2225;SDS011;1119;48.288;8.726;2022-12-29T16:42:36;5.83;;;5.27;;
2225;SDS011;1119;48.288;8.726;2022-12-29T16:48:45;4.57;;;4.37;;
2225;SDS011;1119;48.288;8.726;2022-12-29T16:51:18;4.03;;;3.73;;
2225;SDS011;1119;48.288;8.726;2022-12-29T16:53:55;3.37;;;3.27;;
2225;SDS011;1119;48.288;8.726;2022-12-29T16:56:23;4.00;;;3.77;;
2225;SDS011;1119;48.288;8.726;2022-12-29T16:58:57;5.13;;;4.40;;
2225;SDS011;1119;48.288;8.726;2022-12-29T17:01:28;5.57;;;5.23;;
2225;SDS011;1119;48.288;8.726;2022-12-29T17:03:56;4.03;;;3.80;;
2225;SDS011;1119;48.288;8.726;2022-12-29T17:06:28;4.83;;;4.53;;
2225;SDS011;1119;48.288;8.726;2022-12-29T17:08:56;4.70;;;4.30;;
2225;SDS011;1119;48.288;8.726;2022-12-29T17:11:26;5.97;;;5.47;;
2225;SDS011;1119;48.288;8.726;2022-12-29T17:17:11;6.00;;;5.10;;
2225;SDS011;1119;48.288;8.726;2022-12-29T17:19:44;6.10;;;5.60;;
2225;SDS011;1119;48.288;8.726;2022-12-29T17:22:19;6.43;;;6.00;;
2225;SDS011;1119;48.288;8.726;2022-12-29T17:24:50;6.17;;;5.67;;
2225;SDS011;1119;48.288;8.726;2022-12-29T17:27:20;8.13;;;4.60;;
2225;SDS011;1119;48.288;8.726;2022-12-29T17:29:51;6.10;;;5.73;;
2225;SDS011;1119;48.288;8.726;2022-12-29T17:32:22;4.80;;;4.40;;
2225;SDS011;1119;48.288;8.726;2022-12-29T17:34:49;8.63;;;7.93;;
2225;SDS011;1119;48.288;8.726;2022-12-29T17:37:26;6.93;;;6.20;;
2225;SDS011;1119;48.288;8.726;2022-12-29T17:39:58;6.67;;;6.07;;
2225;SDS011;1119;48.288;8.726;2022-12-29T17:42:26;6.80;;;6.20;;
2225;SDS011;1119;48.288;8.726;2022-12-29T17:44:53;6.70;;;5.80;;
2225;SDS011;1119;48.288;8.726;2022-12-29T17:47:21;7.83;;;6.70;;
2225;SDS011;1119;48.288;8.726;2022-12-29T17:49:48;6.53;;;6.13;;
2225;SDS011;1119;48.288;8.726;2022-12-29T17:52:16;5.73;;;5.30;;
2225;SDS011;1119;48.288;8.726;2022-12-29T17:54:46;8.33;;;7.63;;
2225;SDS011;1119;48.288;8.726;2022-12-29T17:57:18;6.97;;;6.47;;
2225;SDS011;1119;48.288;8.726;2022-12-29T17:59:47;7.30;;;5.67;;
2225;SDS011;1119;48.288;8.726;2022-12-29T18:02:22;8.13;;;5.70;;
2225;SDS011;1119;48.288;8.726;2022-12-29T18:04:53;10.73;;;9.57;;
2225;SDS011;1119;48.288;8.726;2022-12-29T18:07:21;9.23;;;8.23;;
2225;SDS011;1119;48.288;8.726;2022-12-29T18:09:51;8.10;;;7.27;;
2225;SDS011;1119;48.288;8.726;2022-12-29T18:12:29;7.87;;;7.07;;
2225;SDS011;1119;48.288;8.726;2022-12-29T18:15:00;6.03;;;5.50;;
2225;SDS011;1119;48.288;8.726;2022-12-29T18:17:27;7.40;;;5.93;;
2225;SDS011;1119;48.288;8.726;2022-12-29T18:19:55;4.53;;;4.20;;
2225;SDS011;1119;48.288;8.726;2022-12-29T18:22:22;5.40;;;5.00;;
2225;SDS011;1119;48.288;8.726;2022-12-29T18:24:54;5.70;;;5.20;;
2225;SDS011;1119;48.288;8.726;2022-12-29T18:27:21;4.30;;;4.10;;
2225;SDS011;1119;48.288;8.726;2022-12-29T18:29:49;3.70;;;3.50;;
2225;SDS011;1119;48.288;8.726;2022-12-29T18:32:16;5.23;;;4.83;;
2225;SDS011;1119;48.288;8.726;2022-12-29T18:34:45;4.80;;;4.50;;
2225;SDS011;1119;48.288;8.726;2022-12-29T18:37:13;3.83;;;3.63;;
2225;SDS011;1119;48.288;8.726;2022-12-29T18:39:41;4.60;;;4.30;;
2225;SDS011;1119;48.288;8.726;2022-12-29T18:42:09;8.43;;;3.27;;